createdAt,value
2023-04-18T00:03:00.924Z,99021.84
2023-04-18T00:06:05.881Z,99027.16
2023-04-18T00:09:08.181Z,99018.53
2023-04-18T00:12:11.220Z,99024.28
2023-04-18T00:15:13.665Z,99020.44
2023-04-18T00:18:17.268Z,99023.44
2023-04-18T00:21:19.563Z,99016.91
2023-04-18T00:24:22.194Z,99019.75
2023-04-18T00:27:24.420Z,99014.84
2023-04-18T00:30:27.142Z,99019.78
2023-04-18T00:33:29.464Z,99029.56
2023-04-18T00:36:31.768Z,99026.41
2023-04-18T00:39:35.740Z,99036.66
2023-04-18T00:42:37.923Z,99036.50
2023-04-18T00:45:40.103Z,99033.03
2023-04-18T00:48:42.424Z,99038.94
2023-04-18T00:51:44.856Z,99036.28
2023-04-18T00:54:47.409Z,99032.59
2023-04-18T00:57:50.856Z,99036.50
2023-04-18T01:00:54.554Z,99035.91
2023-04-18T01:03:56.941Z,99032.37
2023-04-18T01:06:59.357Z,99026.84
2023-04-18T01:10:02.029Z,99028.62
2023-04-18T01:13:11.803Z,99021.84
2023-04-18T01:16:14.040Z,99028.62
2023-04-18T01:19:19.564Z,99034.88
2023-04-18T01:22:21.779Z,99032.75
2023-04-18T01:25:24.007Z,99021.47
2023-04-18T01:28:27.801Z,99028.47
2023-04-18T01:31:30.155Z,99023.19
2023-04-18T01:34:32.417Z,99024.78
2023-04-18T01:37:34.591Z,99028.69
2023-04-18T01:40:36.839Z,99015.34
2023-04-18T01:43:39.086Z,99016.53
2023-04-18T01:46:41.365Z,99027.28
2023-04-18T01:49:48.118Z,99025.44
2023-04-18T01:52:50.343Z,99019.75
2023-04-18T01:55:52.751Z,99029.66
2023-04-18T01:58:54.903Z,99013.22
2023-04-18T02:01:57.207Z,99020.66
2023-04-18T02:04:59.528Z,99021.47
2023-04-18T02:08:01.724Z,99032.87
2023-04-18T02:11:03.892Z,99022.28
2023-04-18T02:14:06.604Z,99034.28
2023-04-18T02:17:08.806Z,99023.06
2023-04-18T02:20:11.110Z,99028.38
2023-04-18T02:23:13.346Z,99030.38
2023-04-18T02:26:15.529Z,99024.50
2023-04-18T02:29:17.736Z,99030.47
2023-04-18T02:32:19.983Z,99030.31
2023-04-18T02:35:22.501Z,99024.50
2023-04-18T02:38:24.749Z,99023.91
2023-04-18T02:41:26.950Z,99027.81
2023-04-18T02:44:29.182Z,99028.28
2023-04-18T02:47:37.551Z,99024.41
2023-04-18T02:50:45.919Z,99034.00
2023-04-18T02:53:48.463Z,99036.12
2023-04-18T02:56:56.995Z,99032.44
2023-04-18T02:59:59.183Z,99034.88
2023-04-18T03:03:01.520Z,99037.69
2023-04-18T03:06:04.090Z,99040.25
2023-04-18T03:09:06.277Z,99033.94
2023-04-18T03:12:08.485Z,99036.50
2023-04-18T03:15:11.462Z,99034.59
2023-04-18T03:18:13.689Z,99041.81
2023-04-18T03:21:15.897Z,99039.75
2023-04-18T03:24:18.099Z,99053.91
2023-04-18T03:27:20.260Z,99042.47
2023-04-18T03:30:22.709Z,99045.03
2023-04-18T03:33:25.092Z,99047.53
2023-04-18T03:36:28.747Z,99050.00
2023-04-18T03:39:30.994Z,99054.72
2023-04-18T03:42:33.169Z,99049.72
2023-04-18T03:45:35.368Z,99047.94
2023-04-18T03:48:37.584Z,99045.72
2023-04-18T03:51:45.282Z,99049.72
2023-04-18T03:54:47.489Z,99048.56
2023-04-18T03:57:49.722Z,99049.97
2023-04-18T04:00:52.092Z,99054.03
2023-04-18T04:03:54.473Z,99052.00
2023-04-18T04:06:56.817Z,99059.16
2023-04-18T04:09:59.019Z,99062.22
2023-04-18T04:13:01.212Z,99059.84
2023-04-18T04:16:03.583Z,99060.59
2023-04-18T04:19:05.879Z,99062.63
2023-04-18T04:22:08.218Z,99070.56
2023-04-18T04:25:10.618Z,99072.25
2023-04-18T04:28:14.026Z,99067.59
2023-04-18T04:31:16.449Z,99075.06
2023-04-18T04:34:19.122Z,99077.56
2023-04-18T04:37:21.315Z,99079.41
2023-04-18T04:40:23.841Z,99079.75
2023-04-18T04:43:28.807Z,99074.88
2023-04-18T04:46:31.195Z,99089.78
2023-04-18T04:49:33.387Z,99092.84
2023-04-18T04:52:35.791Z,99092.03
2023-04-18T04:55:38.830Z,99094.44
2023-04-18T04:58:41.014Z,99097.09
2023-04-18T05:01:43.289Z,99099.09
2023-04-18T05:05:06.042Z,99101.97
2023-04-18T05:08:08.617Z,99104.59
2023-04-18T05:11:10.905Z,99105.44
2023-04-18T05:14:13.664Z,99113.19
2023-04-18T05:17:16.473Z,99114.41
2023-04-18T05:20:18.853Z,99113.34
2023-04-18T05:23:21.524Z,99116.50
2023-04-18T05:26:24.474Z,99123.53
2023-04-18T05:29:27.216Z,99120.41
2023-04-18T05:32:29.925Z,99130.25
2023-04-18T05:35:32.580Z,99123.34
2023-04-18T05:38:35.385Z,99123.69
2023-04-18T05:41:38.076Z,99128.62
2023-04-18T05:44:40.736Z,99129.59
2023-04-18T05:47:43.254Z,99134.50
2023-04-18T05:50:45.923Z,99127.00
2023-04-18T05:53:48.112Z,99132.37
2023-04-18T05:56:50.424Z,99134.63
2023-04-18T05:59:52.672Z,99132.06
2023-04-18T06:02:55.081Z,99128.53
2023-04-18T06:05:57.883Z,99131.13
2023-04-18T06:09:00.218Z,99132.59
2023-04-18T06:12:02.391Z,99132.28
2023-04-18T06:15:05.717Z,99134.81
2023-04-18T06:18:07.983Z,99142.22
2023-04-18T06:21:10.194Z,99147.69
2023-04-18T06:24:12.806Z,99146.87
2023-04-18T06:27:27.935Z,99158.75
2023-04-18T06:30:30.533Z,99151.25
2023-04-18T06:33:33.424Z,99149.16
2023-04-18T06:36:35.670Z,99150.69
2023-04-18T06:39:37.870Z,99151.19
2023-04-18T06:42:40.168Z,99149.44
2023-04-18T06:45:42.440Z,99150.31
2023-04-18T06:48:44.719Z,99150.78
2023-04-18T06:51:46.884Z,99155.06
2023-04-18T06:54:49.051Z,99151.41
2023-04-18T06:57:51.314Z,99155.28
2023-04-18T07:00:54.226Z,99159.81
2023-04-18T07:03:56.633Z,99156.09
2023-04-18T07:06:58.894Z,99156.88
2023-04-18T07:10:01.401Z,99161.31
2023-04-18T07:13:03.582Z,99155.63
2023-04-18T07:16:06.257Z,99160.38
2023-04-18T07:19:08.431Z,99158.03
2023-04-18T07:22:10.762Z,99166.47
2023-04-18T07:25:12.936Z,99169.44
2023-04-18T07:28:15.266Z,99170.37
2023-04-18T07:31:19.500Z,99172.84
2023-04-18T07:34:22.915Z,99171.94
2023-04-18T07:37:25.397Z,99175.50
2023-04-18T07:40:27.727Z,99175.28
2023-04-18T07:43:30.003Z,99181.22
2023-04-18T07:46:33.966Z,99191.00
2023-04-18T07:49:36.948Z,99196.16
2023-04-18T07:52:40.229Z,99192.84
2023-04-18T07:55:43.354Z,99197.50
2023-04-18T07:58:45.637Z,99198.19
2023-04-18T08:01:47.856Z,99202.03
2023-04-18T08:04:52.159Z,99204.81
2023-04-18T08:07:54.579Z,99201.34
2023-04-18T08:10:56.877Z,99201.47
2023-04-18T08:13:59.363Z,99194.88
2023-04-18T08:17:01.566Z,99208.31
2023-04-18T08:20:07.225Z,99203.00
2023-04-18T08:23:12.214Z,99196.72
2023-04-18T08:26:15.432Z,99210.16
2023-04-18T08:29:17.707Z,99210.34
2023-04-18T08:32:19.923Z,99208.72
2023-04-18T08:35:22.183Z,99206.09
2023-04-18T08:38:24.381Z,99206.50
2023-04-18T08:41:27.160Z,99210.22
2023-04-18T08:44:29.923Z,99217.47
2023-04-18T08:47:32.158Z,99210.19
2023-04-18T08:50:34.429Z,99206.13
2023-04-18T08:53:36.624Z,99211.75
2023-04-18T08:56:38.871Z,99216.37
2023-04-18T08:59:43.162Z,99225.28
2023-04-18T09:02:47.295Z,99218.50
2023-04-18T09:06:08.392Z,99219.09
2023-04-18T09:09:10.629Z,99214.50
2023-04-18T09:12:18.390Z,99210.97
2023-04-18T09:15:23.606Z,99204.81
2023-04-18T09:18:25.986Z,99209.47
2023-04-18T09:21:29.785Z,99214.53
2023-04-18T09:24:32.494Z,99208.16
2023-04-18T09:27:34.910Z,99208.84
2023-04-18T09:30:42.228Z,99218.59
2023-04-18T09:33:56.793Z,99213.84
2023-04-18T09:37:07.347Z,99216.16
2023-04-18T09:40:27.489Z,99210.97
2023-04-18T09:43:29.682Z,99218.69
2023-04-18T09:46:33.180Z,99218.25
2023-04-18T09:49:35.574Z,99212.38
2023-04-18T09:52:42.141Z,99210.50
2023-04-18T09:55:44.358Z,99210.56
2023-04-18T09:58:47.664Z,99216.66
2023-04-18T10:01:50.031Z,99210.13
2023-04-18T10:04:54.155Z,99207.84
2023-04-18T10:07:56.979Z,99215.22
2023-04-18T10:10:59.182Z,99211.22
2023-04-18T10:14:04.622Z,99203.19
2023-04-18T10:17:07.536Z,99222.34
2023-04-18T10:20:17.268Z,99208.97
2023-04-18T10:23:31.926Z,99210.91
2023-04-18T10:26:46.954Z,99207.25
2023-04-18T10:29:54.039Z,99208.87
2023-04-18T10:32:56.279Z,99203.44
2023-04-18T10:35:59.567Z,99210.97
2023-04-18T10:39:03.525Z,99200.25
2023-04-18T10:42:05.731Z,99204.31
2023-04-18T10:45:21.542Z,99210.97
2023-04-18T10:48:25.539Z,99207.25
2023-04-18T10:51:29.079Z,99211.47
2023-04-18T10:54:49.770Z,99202.28
2023-04-18T10:57:55.999Z,99206.28
2023-04-18T11:00:58.296Z,99199.91
2023-04-18T11:04:01.091Z,99203.16
2023-04-18T11:07:03.560Z,99206.66
2023-04-18T11:10:07.257Z,99204.22
2023-04-18T11:13:09.499Z,99198.78
2023-04-18T11:16:26.297Z,99196.47
2023-04-18T11:19:28.620Z,99204.09
2023-04-18T11:22:31.120Z,99200.84
2023-04-18T11:25:36.377Z,99207.78
2023-04-18T11:28:38.591Z,99207.31
2023-04-18T11:31:41.587Z,99209.03
2023-04-18T11:34:43.835Z,99200.16
2023-04-18T11:37:46.143Z,99205.47
2023-04-18T11:40:49.092Z,99203.59
2023-04-18T11:43:51.298Z,99203.59
2023-04-18T11:46:54.031Z,99202.34
2023-04-18T11:50:03.532Z,99200.53
2023-04-18T11:53:05.834Z,99199.47
2023-04-18T11:56:08.096Z,99201.53
2023-04-18T11:59:10.345Z,99210.03
2023-04-18T12:02:16.751Z,99196.38
2023-04-18T12:05:30.422Z,99208.00
2023-04-18T12:08:33.004Z,99191.22
2023-04-18T12:11:35.165Z,99198.09
2023-04-18T12:14:37.385Z,99201.66
2023-04-18T12:17:39.714Z,99195.97
2023-04-18T12:20:46.195Z,99209.41
2023-04-18T12:23:48.553Z,99206.53
2023-04-18T12:26:50.950Z,99225.03
2023-04-18T12:29:53.092Z,99223.06
2023-04-18T12:33:01.922Z,99217.03
2023-04-18T12:36:11.174Z,99218.63
2023-04-18T12:39:13.458Z,99207.31
2023-04-18T12:42:15.858Z,99216.94
2023-04-18T12:45:19.463Z,99214.34
2023-04-18T12:48:21.614Z,99202.31
2023-04-18T12:51:24.887Z,99213.91
2023-04-18T12:54:27.216Z,99213.03
2023-04-18T12:57:31.586Z,99214.03
2023-04-18T13:00:34.118Z,99210.28
2023-04-18T13:03:36.753Z,99214.66
2023-04-18T13:06:39.158Z,99213.97
2023-04-18T13:09:41.397Z,99196.62
2023-04-18T13:12:44.161Z,99204.19
2023-04-18T13:15:46.382Z,99208.41
2023-04-18T13:18:48.556Z,99207.81
2023-04-18T13:21:51.111Z,99206.72
2023-04-18T13:24:53.399Z,99195.78
2023-04-18T13:27:56.358Z,99209.66
2023-04-18T13:30:59.702Z,99207.38
2023-04-18T13:34:02.054Z,99201.72
2023-04-18T13:37:04.234Z,99205.72
2023-04-18T13:40:07.184Z,99202.53
2023-04-18T13:43:11.120Z,99207.72
2023-04-18T13:46:13.741Z,99201.47
2023-04-18T13:49:16.169Z,99201.22
2023-04-18T13:52:18.413Z,99209.78
2023-04-18T13:55:21.077Z,99205.78
2023-04-18T13:58:23.256Z,99208.72
2023-04-18T14:01:25.499Z,99208.06
2023-04-18T14:04:27.838Z,99197.78
2023-04-18T14:07:31.140Z,99201.37
2023-04-18T14:10:33.331Z,99198.16
2023-04-18T14:13:35.906Z,99206.88
2023-04-18T14:16:38.096Z,99199.59
2023-04-18T14:19:40.313Z,99201.66
2023-04-18T14:22:42.499Z,99195.16
2023-04-18T14:25:44.722Z,99206.03
2023-04-18T14:28:47.064Z,99200.59
2023-04-18T14:31:49.314Z,99196.47
2023-04-18T14:34:52.525Z,99196.28
2023-04-18T14:37:54.734Z,99203.53
2023-04-18T14:40:58.299Z,99208.16
2023-04-18T14:44:00.459Z,99191.47
2023-04-18T14:47:02.787Z,99205.31
2023-04-18T14:50:09.532Z,99204.88
2023-04-18T14:53:13.284Z,99194.72
2023-04-18T14:56:16.362Z,99192.09
2023-04-18T14:59:18.759Z,99189.62
2023-04-18T15:02:21.784Z,99194.81
2023-04-18T15:05:24.135Z,99201.03
2023-04-18T15:08:26.842Z,99208.53
2023-04-18T15:11:29.052Z,99202.78
2023-04-18T15:14:32.800Z,99208.91
2023-04-18T15:17:35.908Z,99202.78
2023-04-18T15:20:39.522Z,99208.06
2023-04-18T15:23:41.999Z,99197.50
2023-04-18T15:26:44.279Z,99199.78
2023-04-18T15:29:47.031Z,99193.28
2023-04-18T15:32:49.311Z,99197.34
2023-04-18T15:35:51.537Z,99195.97
2023-04-18T15:38:53.721Z,99192.03
2023-04-18T15:41:56.575Z,99190.84
2023-04-18T15:44:58.774Z,99199.16
2023-04-18T15:48:01.026Z,99192.13
2023-04-18T15:51:03.905Z,99198.78
2023-04-18T15:54:06.581Z,99185.28
2023-04-18T15:57:09.873Z,99195.91
2023-04-18T16:00:16.157Z,99195.72
2023-04-18T16:03:18.668Z,99196.88
2023-04-18T16:06:23.344Z,99203.25
2023-04-18T16:09:25.693Z,99197.75
2023-04-18T16:12:27.895Z,99201.63
2023-04-18T16:15:31.430Z,99203.75
2023-04-18T16:18:34.185Z,99212.84
2023-04-18T16:21:36.830Z,99210.53
2023-04-18T16:24:41.554Z,99210.41
2023-04-18T16:27:44.528Z,99208.84
2023-04-18T16:30:47.303Z,99216.75
2023-04-18T16:33:52.543Z,99217.00
2023-04-18T16:36:55.665Z,99224.37
2023-04-18T16:39:58.067Z,99224.16
2023-04-18T16:43:00.602Z,99223.72
2023-04-18T16:46:03.402Z,99218.31
2023-04-18T16:49:05.623Z,99220.41
2023-04-18T16:52:08.008Z,99224.13
2023-04-18T16:55:10.987Z,99220.72
2023-04-18T16:58:13.266Z,99215.50
2023-04-18T17:01:15.601Z,99211.38
2023-04-18T17:04:19.081Z,99219.31
2023-04-18T17:07:21.300Z,99220.53
2023-04-18T17:10:23.783Z,99214.72
2023-04-18T17:13:27.236Z,99223.09
2023-04-18T17:16:31.864Z,99221.28
2023-04-18T17:19:34.242Z,99221.06
2023-04-18T17:22:36.713Z,99220.16
2023-04-18T17:25:39.208Z,99224.34
2023-04-18T17:28:41.495Z,99224.22
2023-04-18T17:31:44.267Z,99220.97
2023-04-18T17:34:46.756Z,99226.56
2023-04-18T17:37:50.036Z,99227.78
2023-04-18T17:41:02.339Z,99231.44
2023-04-18T17:44:05.642Z,99231.00
2023-04-18T17:47:08.179Z,99239.28
2023-04-18T17:50:10.960Z,99234.03
2023-04-18T17:53:13.506Z,99233.28
2023-04-18T17:56:16.391Z,99238.97
2023-04-18T17:59:18.927Z,99244.09
2023-04-18T18:02:23.325Z,99240.06
2023-04-18T18:05:30.396Z,99245.28
2023-04-18T18:08:33.382Z,99240.59
2023-04-18T18:11:37.153Z,99251.88
2023-04-18T18:14:40.579Z,99245.72
2023-04-18T18:17:43.238Z,99259.75
2023-04-18T18:20:45.878Z,99254.50
2023-04-18T18:23:48.758Z,99257.09
2023-04-18T18:26:51.863Z,99254.37
2023-04-18T18:29:54.505Z,99263.78
2023-04-18T18:32:57.348Z,99270.13
2023-04-18T18:35:59.915Z,99271.25
2023-04-18T18:39:02.296Z,99273.91
2023-04-18T18:42:04.984Z,99272.34
2023-04-18T18:45:08.344Z,99276.03
2023-04-18T18:48:11.564Z,99278.09
2023-04-18T18:51:15.803Z,99282.38
2023-04-18T18:54:18.416Z,99285.69
2023-04-18T18:57:21.162Z,99292.78
2023-04-18T19:00:24.855Z,99302.22
2023-04-18T19:03:27.911Z,99305.25
2023-04-18T19:06:31.271Z,99300.87
2023-04-18T19:09:34.180Z,99305.38
2023-04-18T19:12:37.859Z,99308.03
2023-04-18T19:15:40.623Z,99310.72
2023-04-18T19:18:46.959Z,99307.16
2023-04-18T19:21:50.117Z,99312.88
2023-04-18T19:24:52.765Z,99315.56
2023-04-18T19:27:55.336Z,99313.72
2023-04-18T19:30:57.876Z,99311.44
2023-04-18T19:34:00.596Z,99304.66
2023-04-18T19:37:03.718Z,99312.28
2023-04-18T19:40:07.385Z,99320.00
2023-04-18T19:43:09.857Z,99323.25
2023-04-18T19:46:12.382Z,99330.31
2023-04-18T19:49:15.271Z,99328.59
2023-04-18T19:52:18.451Z,99334.81
2023-04-18T19:55:20.997Z,99331.47
2023-04-18T19:58:44.923Z,99329.50
2023-04-18T20:01:47.801Z,99331.94
2023-04-18T20:04:50.645Z,99330.25
2023-04-18T20:07:53.194Z,99333.13
2023-04-18T20:10:56.521Z,99323.19
2023-04-18T20:14:00.664Z,99319.56
2023-04-18T20:17:03.074Z,99325.72
2023-04-18T20:20:08.281Z,99323.78
2023-04-18T20:23:11.563Z,99320.28
2023-04-18T20:26:14.135Z,99320.88
2023-04-18T20:29:16.983Z,99322.97
2023-04-18T20:32:19.412Z,99336.78
2023-04-18T20:35:22.512Z,99333.41
2023-04-18T20:38:26.063Z,99331.44
2023-04-18T20:41:31.008Z,99331.31
2023-04-18T20:44:35.161Z,99336.69
2023-04-18T20:47:39.233Z,99343.50
2023-04-18T20:50:43.908Z,99342.53
2023-04-18T20:53:46.419Z,99337.59
2023-04-18T20:56:48.757Z,99336.28
2023-04-18T20:59:51.029Z,99332.22
2023-04-18T21:02:53.309Z,99338.34
2023-04-18T21:05:56.022Z,99330.59
2023-04-18T21:08:58.377Z,99333.03
2023-04-18T21:12:01.747Z,99331.19
2023-04-18T21:15:05.529Z,99332.50
2023-04-18T21:18:07.831Z,99329.03
2023-04-18T21:21:10.049Z,99329.84
2023-04-18T21:24:12.369Z,99330.72
2023-04-18T21:27:15.901Z,99323.31
2023-04-18T21:30:18.221Z,99327.22
2023-04-18T21:33:20.430Z,99321.53
2023-04-18T21:36:24.220Z,99307.78
2023-04-18T21:39:27.361Z,99315.00
2023-04-18T21:42:29.556Z,99310.88
2023-04-18T21:45:31.820Z,99313.09
2023-04-18T21:48:34.102Z,99309.81
2023-04-18T21:51:36.388Z,99306.72
2023-04-18T21:54:39.925Z,99310.16
2023-04-18T21:57:42.115Z,99302.81
2023-04-18T22:00:44.338Z,99302.00
2023-04-18T22:03:46.990Z,99294.00
2023-04-18T22:06:49.401Z,99300.47
2023-04-18T22:09:51.689Z,99298.41
2023-04-18T22:12:54.235Z,99293.56
2023-04-18T22:15:58.190Z,99297.63
2023-04-18T22:19:01.385Z,99295.03
2023-04-18T22:22:03.724Z,99288.66
2023-04-18T22:25:07.313Z,99287.31
2023-04-18T22:28:09.538Z,99288.41
2023-04-18T22:31:11.772Z,99280.00
2023-04-18T22:34:14.276Z,99284.66
2023-04-18T22:37:16.757Z,99279.38
2023-04-18T22:40:18.983Z,99274.16
2023-04-18T22:43:23.657Z,99275.81
2023-04-18T22:46:27.284Z,99270.09
2023-04-18T22:49:30.115Z,99273.59
2023-04-18T22:52:32.300Z,99260.84
2023-04-18T22:55:34.543Z,99263.88
2023-04-18T22:58:36.750Z,99257.97
2023-04-18T23:01:38.977Z,99262.28
2023-04-18T23:04:42.470Z,99258.81
2023-04-18T23:07:44.687Z,99257.59
2023-04-18T23:10:46.915Z,99253.19
2023-04-18T23:13:49.115Z,99237.63
2023-04-18T23:16:51.291Z,99256.91
2023-04-18T23:19:53.527Z,99240.72
2023-04-18T23:22:56.086Z,99241.13
2023-04-18T23:25:58.287Z,99235.34
2023-04-18T23:29:00.533Z,99232.25
2023-04-18T23:32:02.876Z,99231.19
2023-04-18T23:35:06.187Z,99226.06
2023-04-18T23:38:08.687Z,99219.56
2023-04-18T23:41:10.900Z,99216.63
2023-04-18T23:44:13.200Z,99221.19
2023-04-18T23:47:15.696Z,99207.09
2023-04-18T23:50:18.178Z,99204.84
2023-04-18T23:53:21.733Z,99205.91
2023-04-18T23:56:24.043Z,99198.72
2023-04-18T23:59:26.233Z,99196.28
